createdAt,value
2023-03-13T00:00:13.321Z,9.33
2023-03-13T00:02:45.885Z,10.20
2023-03-13T00:05:26.779Z,9.23
2023-03-13T00:08:00.726Z,12.07
2023-03-13T00:10:34.841Z,13.37
2023-03-13T00:13:08.790Z,10.07
2023-03-13T00:15:43.764Z,5.83
2023-03-13T00:18:17.734Z,10.10
2023-03-13T00:20:47.832Z,9.90
2023-03-13T00:23:21.809Z,8.10
2023-03-13T00:25:55.830Z,9.23
2023-03-13T00:28:32.962Z,8.20
2023-03-13T00:31:14.909Z,7.87
2023-03-13T00:33:45.171Z,10.43
2023-03-13T00:36:21.782Z,10.53
2023-03-13T00:38:49.666Z,7.17
2023-03-13T00:41:30.774Z,8.43
2023-03-13T00:44:04.735Z,8.07
2023-03-13T00:46:38.844Z,9.03
2023-03-13T00:49:06.919Z,5.93
2023-03-13T00:51:34.429Z,5.73
2023-03-13T00:54:08.772Z,6.77
2023-03-13T00:56:43.733Z,6.37
2023-03-13T00:59:17.765Z,9.13
2023-03-13T01:01:54.156Z,7.63
2023-03-13T01:04:35.097Z,7.97
2023-03-13T01:07:09.194Z,8.70
2023-03-13T01:09:36.685Z,5.87
2023-03-13T01:12:11.096Z,4.23
2023-03-13T01:14:39.935Z,7.70
2023-03-13T01:17:14.187Z,9.83
2023-03-13T01:19:48.119Z,6.67
2023-03-13T01:22:22.140Z,6.63
2023-03-13T01:24:59.115Z,4.40
2023-03-13T01:27:33.190Z,4.03
2023-03-13T01:30:07.174Z,2.80
2023-03-13T01:32:44.230Z,5.20
2023-03-13T01:35:19.149Z,5.07
2023-03-13T01:37:54.157Z,7.90
2023-03-13T01:40:29.199Z,4.47
2023-03-13T01:43:04.194Z,6.80
2023-03-13T01:45:56.241Z,4.57
2023-03-13T01:48:51.388Z,7.63
2023-03-13T01:51:41.204Z,3.20
2023-03-13T01:54:52.135Z,6.23
2023-03-13T01:57:37.122Z,5.17
2023-03-13T02:00:20.160Z,4.33
2023-03-13T02:02:59.201Z,5.27
2023-03-13T02:05:37.419Z,6.67
2023-03-13T02:08:07.941Z,3.50
2023-03-13T02:10:49.140Z,3.17
2023-03-13T02:13:24.122Z,3.30
2023-03-13T02:15:55.485Z,3.37
2023-03-13T02:18:29.760Z,5.83
2023-03-13T02:21:15.031Z,4.53
2023-03-13T02:24:13.006Z,5.50
2023-03-13T02:26:46.765Z,2.95
2023-03-13T02:29:18.506Z,3.67
2023-03-13T02:31:55.700Z,5.97
2023-03-13T02:34:30.475Z,3.10
2023-03-13T02:37:06.707Z,1.83
2023-03-13T02:39:35.548Z,4.17
2023-03-13T02:42:11.821Z,6.70
2023-03-13T02:44:47.761Z,7.07
2023-03-13T02:47:29.760Z,3.17
2023-03-13T02:49:57.148Z,5.77
2023-03-13T02:52:39.783Z,2.93
2023-03-13T02:55:24.967Z,4.10
2023-03-13T02:58:00.894Z,3.57
2023-03-13T03:00:28.394Z,6.83
2023-03-13T03:03:02.912Z,2.50
2023-03-13T03:05:43.881Z,2.10
2023-03-13T03:08:18.019Z,2.93
2023-03-13T03:10:45.460Z,4.63
2023-03-13T03:13:18.904Z,3.00
2023-03-13T03:15:52.902Z,4.30
2023-03-13T03:18:20.476Z,4.67
2023-03-13T03:20:53.972Z,3.43
2023-03-13T03:23:27.970Z,3.07
2023-03-13T03:26:01.960Z,2.60
2023-03-13T03:28:29.676Z,3.00
2023-03-13T03:31:03.896Z,4.90
2023-03-13T03:33:38.005Z,5.13
2023-03-13T03:36:14.919Z,3.83
2023-03-13T03:38:43.051Z,2.80
2023-03-13T03:41:18.966Z,3.87
2023-03-13T03:43:47.669Z,1.73
2023-03-13T03:46:23.958Z,4.17
2023-03-13T03:48:57.989Z,3.00
2023-03-13T03:51:33.898Z,3.10
2023-03-13T03:54:03.772Z,4.10
2023-03-13T03:56:31.187Z,3.90
2023-03-13T03:59:05.675Z,3.40
2023-03-13T04:01:33.240Z,1.43
2023-03-13T04:04:15.042Z,1.97
2023-03-13T04:06:49.061Z,2.90
2023-03-13T04:09:23.000Z,4.67
2023-03-13T04:11:54.195Z,4.77
2023-03-13T04:14:28.433Z,4.83
2023-03-13T04:17:10.149Z,1.57
2023-03-13T04:19:44.114Z,1.60
2023-03-13T04:22:11.715Z,1.50
2023-03-13T04:24:46.118Z,2.10
2023-03-13T04:27:20.246Z,2.87
2023-03-13T04:29:54.101Z,2.90
2023-03-13T04:32:28.292Z,1.10
2023-03-13T04:35:02.133Z,4.83
2023-03-13T04:37:36.548Z,1.27
2023-03-13T04:40:14.125Z,2.03
2023-03-13T04:42:43.190Z,2.47
2023-03-13T04:45:21.122Z,1.17
2023-03-13T04:47:48.699Z,1.27
2023-03-13T04:50:23.158Z,0.50
2023-03-13T04:52:57.135Z,1.10
2023-03-13T04:55:31.103Z,1.07
2023-03-13T04:58:05.109Z,0.70
2023-03-13T05:00:39.203Z,1.00
2023-03-13T05:03:18.705Z,1.87
2023-03-13T05:05:59.752Z,0.70
2023-03-13T05:08:34.320Z,0.53
2023-03-13T05:11:08.765Z,1.43
2023-03-13T05:13:43.887Z,0.70
2023-03-13T05:16:18.045Z,1.00
2023-03-13T05:18:49.653Z,1.23
2023-03-13T05:21:23.930Z,0.40
2023-03-13T05:23:52.599Z,0.83
2023-03-13T05:26:26.938Z,0.87
2023-03-13T05:28:54.965Z,0.60
2023-03-13T05:31:28.942Z,1.10
2023-03-13T05:33:56.505Z,1.10
2023-03-13T05:36:50.969Z,0.40
2023-03-13T05:39:20.486Z,1.07
2023-03-13T05:41:54.023Z,2.93
2023-03-13T05:44:27.953Z,0.60
2023-03-13T05:46:57.322Z,0.57
2023-03-13T05:49:31.366Z,1.10
2023-03-13T05:51:58.805Z,0.30
2023-03-13T05:54:34.937Z,1.27
2023-03-13T05:57:10.317Z,0.50
2023-03-13T05:59:38.536Z,0.70
2023-03-13T06:02:12.601Z,0.20
2023-03-13T06:05:01.371Z,2.00
2023-03-13T06:07:35.363Z,0.75
2023-03-13T06:10:10.320Z,0.65
2023-03-13T06:12:44.317Z,2.00
2023-03-13T06:15:18.335Z,0.32
2023-03-13T06:17:45.729Z,0.50
2023-03-13T06:20:21.364Z,0.57
2023-03-13T06:22:55.360Z,0.95
2023-03-13T06:25:22.805Z,0.40
2023-03-13T06:27:56.335Z,0.40
2023-03-13T06:30:32.113Z,0.50
2023-03-13T06:33:07.592Z,0.70
2023-03-13T06:35:55.088Z,0.77
2023-03-13T06:38:24.775Z,0.40
2023-03-13T06:41:00.015Z,0.43
2023-03-13T06:43:27.759Z,0.20
2023-03-13T06:46:05.349Z,0.43
2023-03-13T06:48:33.012Z,0.30
2023-03-13T06:51:07.081Z,0.67
2023-03-13T06:53:34.898Z,0.57
2023-03-13T06:56:11.515Z,0.70
2023-03-13T06:58:39.431Z,1.60
2023-03-13T07:01:18.943Z,0.30
2023-03-13T07:03:55.498Z,0.50
2023-03-13T07:06:38.874Z,0.53
2023-03-13T07:09:12.414Z,0.90
2023-03-13T07:11:39.988Z,1.23
2023-03-13T07:14:17.561Z,0.70
2023-03-13T07:16:48.034Z,0.87
2023-03-13T07:19:24.427Z,0.57
2023-03-13T07:21:59.308Z,0.38
2023-03-13T07:24:37.845Z,0.50
2023-03-13T07:27:07.946Z,1.13
2023-03-13T07:29:49.291Z,0.50
2023-03-13T07:32:18.066Z,0.40
2023-03-13T07:34:52.262Z,0.57
2023-03-13T07:37:26.623Z,1.98
2023-03-13T07:39:55.314Z,0.55
2023-03-13T07:42:29.393Z,0.70
2023-03-13T07:45:07.378Z,1.45
2023-03-13T07:47:44.811Z,0.93
2023-03-13T07:50:12.750Z,0.52
2023-03-13T07:52:47.870Z,1.65
2023-03-13T07:55:16.786Z,0.98
2023-03-13T07:57:53.145Z,1.17
2023-03-13T08:00:27.805Z,0.93
2023-03-13T08:02:55.206Z,1.33
2023-03-13T08:05:38.923Z,0.73
2023-03-13T08:08:21.879Z,1.42
2023-03-13T08:10:50.550Z,1.55
2023-03-13T08:13:24.979Z,1.30
2023-03-13T08:16:17.178Z,1.17
2023-03-13T08:18:59.433Z,1.25
2023-03-13T08:21:44.920Z,1.05
2023-03-13T08:24:27.913Z,1.58
2023-03-13T08:27:01.867Z,1.08
2023-03-13T08:29:29.376Z,0.98
2023-03-13T08:32:03.911Z,1.00
2023-03-13T08:34:31.600Z,0.80
2023-03-13T08:37:05.858Z,1.20
2023-03-13T08:39:39.919Z,1.45
2023-03-13T08:42:17.891Z,4.00
2023-03-13T08:44:51.973Z,1.08
2023-03-13T08:47:26.147Z,0.75
2023-03-13T08:50:02.928Z,1.00
2023-03-13T08:52:36.932Z,2.08
2023-03-13T08:55:11.947Z,1.63
2023-03-13T08:57:39.459Z,2.90
2023-03-13T09:00:15.045Z,1.50
2023-03-13T09:02:42.693Z,1.48
2023-03-13T09:05:17.007Z,2.88
2023-03-13T09:07:44.481Z,3.13
2023-03-13T09:10:19.896Z,1.35
2023-03-13T09:12:54.933Z,1.10
2023-03-13T09:15:32.787Z,1.60
2023-03-13T09:18:00.431Z,1.98
2023-03-13T09:20:34.698Z,1.85
2023-03-13T09:23:15.675Z,4.72
2023-03-13T09:25:49.641Z,2.25
2023-03-13T09:28:26.382Z,2.08
2023-03-13T09:31:01.373Z,2.60
2023-03-13T09:33:28.938Z,2.13
2023-03-13T09:36:03.380Z,2.75
2023-03-13T09:38:30.952Z,1.92
2023-03-13T09:41:29.348Z,2.15
2023-03-13T09:44:04.787Z,1.85
2023-03-13T09:46:52.516Z,1.65
2023-03-13T09:49:53.308Z,4.32
2023-03-13T09:52:38.325Z,1.38
2023-03-13T09:55:30.008Z,1.67
2023-03-13T09:58:11.022Z,3.20
2023-03-13T10:00:47.998Z,3.45
2023-03-13T10:03:33.276Z,2.22
2023-03-13T10:06:12.958Z,2.85
2023-03-13T10:08:40.600Z,1.45
2023-03-13T10:11:29.036Z,4.50
2023-03-13T10:14:26.971Z,2.80
2023-03-13T10:17:10.042Z,1.60
2023-03-13T10:19:43.580Z,3.78
2023-03-13T10:22:27.277Z,2.05
2023-03-13T10:25:24.991Z,3.15
2023-03-13T10:28:00.034Z,1.70
2023-03-13T10:30:43.202Z,1.95
2023-03-13T10:33:32.436Z,1.35
2023-03-13T10:36:16.443Z,2.30
2023-03-13T10:38:54.860Z,1.65
2023-03-13T10:41:40.508Z,1.55
2023-03-13T10:44:19.793Z,2.90
2023-03-13T10:46:57.908Z,1.90
2023-03-13T10:49:31.614Z,3.30
2023-03-13T10:52:12.008Z,1.92
2023-03-13T10:54:47.761Z,3.08
2023-03-13T10:57:29.695Z,2.70
2023-03-13T11:00:18.089Z,1.25
2023-03-13T11:02:52.533Z,1.40
2023-03-13T11:05:47.016Z,3.05
2023-03-13T11:08:17.562Z,3.72
2023-03-13T11:11:02.072Z,2.22
2023-03-13T11:13:38.139Z,2.95
2023-03-13T11:16:38.008Z,3.47
2023-03-13T11:19:31.068Z,3.55
2023-03-13T11:22:20.091Z,1.98
2023-03-13T11:25:15.294Z,1.92
2023-03-13T11:27:43.877Z,1.45
2023-03-13T11:30:43.079Z,3.65
2023-03-13T11:33:27.314Z,1.67
2023-03-13T11:36:23.099Z,2.80
2023-03-13T11:39:04.121Z,3.45
2023-03-13T11:42:08.435Z,3.13
2023-03-13T11:44:50.844Z,1.58
2023-03-13T11:47:29.192Z,1.48
2023-03-13T11:50:21.036Z,1.08
2023-03-13T11:53:17.027Z,2.42
2023-03-13T11:56:16.030Z,1.60
2023-03-13T11:59:02.157Z,2.17
2023-03-13T12:01:41.905Z,3.03
2023-03-13T12:04:35.115Z,2.13
2023-03-13T12:07:23.973Z,2.53
2023-03-13T12:10:04.333Z,1.30
2023-03-13T12:12:48.217Z,1.80
2023-03-13T12:15:55.090Z,5.57
2023-03-13T12:18:45.194Z,2.00
2023-03-13T12:21:28.219Z,2.88
2023-03-13T12:24:36.025Z,1.20
2023-03-13T12:27:19.224Z,3.25
2023-03-13T12:29:56.061Z,1.50
2023-03-13T12:32:52.114Z,2.92
2023-03-13T12:35:40.056Z,1.30
2023-03-13T12:38:20.472Z,3.20
2023-03-13T12:41:00.025Z,3.13
2023-03-13T12:43:40.105Z,1.50
2023-03-13T12:46:43.083Z,3.33
2023-03-13T12:49:37.024Z,3.35
2023-03-13T12:52:46.120Z,4.13
2023-03-13T12:55:39.382Z,1.83
2023-03-13T12:58:46.269Z,2.30
2023-03-13T13:01:24.370Z,1.45
2023-03-13T13:04:11.281Z,0.93
2023-03-13T13:07:04.893Z,3.35
2023-03-13T13:10:06.911Z,1.30
2023-03-13T13:12:40.985Z,1.75
2023-03-13T13:15:34.065Z,2.30
2023-03-13T13:18:23.162Z,1.65
2023-03-13T13:21:22.658Z,1.25
2023-03-13T13:24:00.089Z,0.90
2023-03-13T13:26:36.745Z,4.47
2023-03-13T13:29:19.636Z,1.67
2023-03-13T13:31:56.946Z,2.00
2023-03-13T13:34:37.723Z,1.48
2023-03-13T13:37:34.760Z,1.23
2023-03-13T13:40:26.894Z,1.52
2023-03-13T13:43:06.754Z,3.33
2023-03-13T13:45:37.147Z,2.70
2023-03-13T13:48:34.874Z,1.40
2023-03-13T13:51:18.746Z,1.67
2023-03-13T13:54:00.695Z,0.70
2023-03-13T13:56:51.748Z,5.18
2023-03-13T13:59:28.725Z,1.63
2023-03-13T14:02:14.704Z,2.20
2023-03-13T14:05:05.558Z,2.75
2023-03-13T14:07:57.199Z,3.63
2023-03-13T14:10:42.969Z,1.10
2023-03-13T14:13:31.118Z,3.58
2023-03-13T14:16:25.186Z,2.67
2023-03-13T14:18:53.771Z,1.35
2023-03-13T14:21:32.132Z,3.90
2023-03-13T14:24:21.525Z,0.98
2023-03-13T14:26:55.186Z,1.42
2023-03-13T14:29:33.179Z,3.88
2023-03-13T14:32:00.957Z,1.05
2023-03-13T14:34:40.413Z,0.90
2023-03-13T14:37:34.149Z,1.20
2023-03-13T14:40:25.499Z,2.15
2023-03-13T14:43:01.906Z,1.88
2023-03-13T14:45:39.615Z,1.10
2023-03-13T14:48:41.400Z,0.80
2023-03-13T14:51:31.373Z,1.60
2023-03-13T14:54:03.325Z,3.72
2023-03-13T14:56:43.434Z,1.95
2023-03-13T14:59:17.901Z,3.95
2023-03-13T15:02:04.357Z,0.90
2023-03-13T15:04:50.641Z,1.23
2023-03-13T15:07:25.407Z,3.05
2023-03-13T15:09:53.467Z,1.00
2023-03-13T15:12:30.369Z,1.23
2023-03-13T15:14:59.042Z,4.97
2023-03-13T15:17:35.386Z,1.10
2023-03-13T15:20:09.873Z,0.70
2023-03-13T15:22:53.849Z,0.80
2023-03-13T15:25:42.248Z,0.95
2023-03-13T15:28:29.215Z,0.80
2023-03-13T15:31:03.230Z,0.93
2023-03-13T15:33:39.624Z,1.67
2023-03-13T15:36:19.507Z,5.55
2023-03-13T15:38:50.030Z,3.53
2023-03-13T15:41:24.392Z,4.22
2023-03-13T15:44:02.540Z,1.77
2023-03-13T15:46:30.377Z,1.33
2023-03-13T15:49:04.330Z,1.45
2023-03-13T15:51:35.363Z,3.15
2023-03-13T15:54:09.318Z,2.28
2023-03-13T15:56:45.363Z,1.27
2023-03-13T15:59:21.353Z,1.52
2023-03-13T16:01:49.974Z,1.77
2023-03-13T16:04:24.435Z,1.98
2023-03-13T16:06:52.074Z,1.08
2023-03-13T16:09:26.339Z,1.35
2023-03-13T16:11:56.193Z,1.40
2023-03-13T16:14:30.186Z,1.95
2023-03-13T16:16:57.952Z,2.70
2023-03-13T16:19:32.168Z,3.58
2023-03-13T16:22:06.087Z,2.20
2023-03-13T16:24:47.155Z,1.40
2023-03-13T16:27:18.128Z,1.58
2023-03-13T16:29:53.159Z,1.15
2023-03-13T16:32:24.675Z,2.50
2023-03-13T16:34:59.140Z,0.82
2023-03-13T16:37:33.226Z,1.00
2023-03-13T16:40:08.179Z,1.27
2023-03-13T16:42:44.514Z,1.75
2023-03-13T16:45:13.588Z,5.18
2023-03-13T16:47:49.549Z,1.33
2023-03-13T16:50:40.461Z,2.10
2023-03-13T16:53:14.549Z,1.30
2023-03-13T16:55:42.191Z,1.33
2023-03-13T16:58:19.574Z,2.58
2023-03-13T17:01:02.755Z,1.95
2023-03-13T17:03:38.538Z,1.65
2023-03-13T17:06:06.499Z,3.33
2023-03-13T17:08:40.485Z,1.15
2023-03-13T17:11:19.108Z,2.33
2023-03-13T17:13:48.951Z,3.05
2023-03-13T17:16:28.291Z,2.70
2023-03-13T17:18:56.564Z,1.23
2023-03-13T17:21:36.520Z,1.20
2023-03-13T17:24:12.039Z,1.75
2023-03-13T17:26:47.484Z,1.73
2023-03-13T17:29:18.945Z,2.15
2023-03-13T17:31:52.436Z,1.42
2023-03-13T17:34:26.439Z,4.07
2023-03-13T17:37:00.439Z,1.73
2023-03-13T17:39:27.876Z,3.97
2023-03-13T17:42:01.422Z,2.88
2023-03-13T17:44:35.374Z,1.20
2023-03-13T17:47:09.554Z,1.52
2023-03-13T17:49:43.406Z,2.15
2023-03-13T17:52:18.082Z,1.00
2023-03-13T17:54:53.264Z,1.60
2023-03-13T17:57:22.445Z,3.22
2023-03-13T17:59:56.240Z,2.65
2023-03-13T18:02:30.281Z,4.32
2023-03-13T18:05:04.533Z,1.55
2023-03-13T18:07:38.388Z,1.75
2023-03-13T18:10:24.247Z,3.50
2023-03-13T18:12:58.257Z,3.33
2023-03-13T18:15:33.304Z,2.47
2023-03-13T18:18:00.655Z,3.95
2023-03-13T18:20:38.232Z,7.78
2023-03-13T18:23:20.282Z,4.63
2023-03-13T18:25:54.293Z,6.20
2023-03-13T18:28:28.216Z,7.63
2023-03-13T18:31:04.572Z,11.35
2023-03-13T18:33:38.279Z,4.05
2023-03-13T18:36:16.201Z,2.83
2023-03-13T18:38:51.232Z,1.83
2023-03-13T18:41:19.249Z,3.75
2023-03-13T18:43:46.912Z,19.65
2023-03-13T18:46:25.263Z,30.80
2023-03-13T18:48:52.691Z,19.35
2023-03-13T18:51:29.299Z,6.00
2023-03-13T18:54:03.343Z,1.58
2023-03-13T18:56:38.258Z,2.42
2023-03-13T18:59:10.311Z,1.40
2023-03-13T19:01:44.265Z,3.45
2023-03-13T19:04:18.235Z,2.17
2023-03-13T19:06:46.435Z,1.60
2023-03-13T19:12:12.299Z,1.27
2023-03-13T19:14:46.275Z,3.13
2023-03-13T19:17:31.323Z,3.55
2023-03-13T19:20:07.778Z,3.78
2023-03-13T19:22:41.367Z,5.03
2023-03-13T19:25:16.340Z,2.53
2023-03-13T19:27:44.668Z,4.05
2023-03-13T19:30:39.321Z,2.45
2023-03-13T19:33:13.280Z,3.63
2023-03-13T19:35:47.404Z,2.15
2023-03-13T19:38:22.990Z,2.08
2023-03-13T19:40:57.949Z,1.85
2023-03-13T19:43:33.019Z,1.13
2023-03-13T19:46:07.293Z,4.97
2023-03-13T19:48:40.985Z,1.73
2023-03-13T19:51:08.421Z,0.60
2023-03-13T19:53:41.937Z,1.80
2023-03-13T19:56:21.690Z,0.95
2023-03-13T19:59:39.015Z,0.30
2023-03-13T20:02:16.827Z,0.30
2023-03-13T20:04:51.948Z,1.17
2023-03-13T20:07:19.661Z,0.60
2023-03-13T20:09:55.996Z,0.57
2023-03-13T20:12:29.994Z,1.50
2023-03-13T20:15:04.014Z,1.50
2023-03-13T20:17:39.069Z,0.40
2023-03-13T20:20:08.441Z,0.50
2023-03-13T20:22:49.994Z,0.43
2023-03-13T20:25:30.949Z,0.50
2023-03-13T20:27:58.754Z,1.77
2023-03-13T20:30:32.984Z,1.47
2023-03-13T20:33:00.367Z,0.50
2023-03-13T20:35:35.097Z,0.60
2023-03-13T20:38:05.184Z,0.60
2023-03-13T20:40:40.172Z,0.43
2023-03-13T20:43:07.650Z,0.80
2023-03-13T20:45:35.735Z,0.47
2023-03-13T20:48:09.998Z,1.20
2023-03-13T20:50:44.144Z,0.60
2023-03-13T20:53:12.551Z,0.73
2023-03-13T20:55:46.969Z,0.77
2023-03-13T20:58:14.992Z,1.13
2023-03-13T21:00:50.000Z,12.77
2023-03-13T21:03:17.706Z,1.20
2023-03-13T21:05:54.392Z,0.60
2023-03-13T21:08:29.389Z,1.60
2023-03-13T21:11:03.321Z,2.37
2023-03-13T21:13:30.782Z,3.53
2023-03-13T21:16:09.365Z,1.93
2023-03-13T21:18:43.372Z,11.27
2023-03-13T21:21:23.355Z,5.50
2023-03-13T21:23:58.403Z,2.10
2023-03-13T21:26:40.372Z,8.57
2023-03-13T21:29:17.395Z,4.43
2023-03-13T21:31:51.616Z,0.73
2023-03-13T21:34:25.401Z,1.27
2023-03-13T21:36:52.729Z,4.93
2023-03-13T21:39:27.416Z,1.10
2023-03-13T21:41:55.158Z,0.70
2023-03-13T21:44:29.416Z,3.20
2023-03-13T21:46:57.067Z,1.03
2023-03-13T21:49:31.390Z,1.07
2023-03-13T21:51:58.843Z,1.37
2023-03-13T21:54:28.222Z,2.50
2023-03-13T21:57:03.373Z,1.63
2023-03-13T21:59:31.963Z,2.33
2023-03-13T22:02:06.338Z,3.30
2023-03-13T22:04:33.905Z,0.80
2023-03-13T22:07:07.391Z,1.70
2023-03-13T22:09:35.070Z,3.17
2023-03-13T22:12:09.560Z,1.27
2023-03-13T22:14:37.400Z,1.73
2023-03-13T22:17:11.671Z,1.97
2023-03-13T22:19:45.374Z,1.70
2023-03-13T22:22:19.499Z,1.40
2023-03-13T22:24:54.368Z,1.40
2023-03-13T22:27:30.404Z,1.30
2023-03-13T22:30:04.384Z,1.10
2023-03-13T22:32:38.520Z,1.23
2023-03-13T22:35:06.694Z,2.07
2023-03-13T22:37:40.694Z,2.17
2023-03-13T22:40:08.821Z,1.30
2023-03-13T22:42:36.229Z,1.10
2023-03-13T22:45:10.350Z,1.10
2023-03-13T22:47:44.341Z,0.80
2023-03-13T22:50:19.397Z,1.33
2023-03-13T22:52:53.369Z,1.40
2023-03-13T22:55:27.359Z,1.40
2023-03-13T22:57:56.272Z,1.40
2023-03-13T23:00:30.376Z,2.00
2023-03-13T23:03:04.662Z,1.40
2023-03-13T23:05:40.893Z,1.00
2023-03-13T23:08:17.378Z,1.20
2023-03-13T23:10:52.376Z,1.63
2023-03-13T23:13:27.562Z,2.93
2023-03-13T23:16:01.451Z,0.73
2023-03-13T23:18:29.012Z,1.13
2023-03-13T23:21:03.425Z,1.20
2023-03-13T23:23:37.475Z,1.20
2023-03-13T23:26:21.640Z,1.33
2023-03-13T23:28:55.538Z,1.20
2023-03-13T23:31:29.558Z,1.67
2023-03-13T23:34:05.482Z,2.53
2023-03-13T23:36:39.402Z,1.33
2023-03-13T23:39:13.518Z,1.37
2023-03-13T23:41:47.381Z,1.40
2023-03-13T23:44:14.813Z,1.20
2023-03-13T23:46:48.404Z,2.80
2023-03-13T23:49:24.631Z,1.40
2023-03-13T23:51:58.424Z,1.13
2023-03-13T23:54:32.397Z,1.07
2023-03-13T23:57:06.432Z,1.40
2023-03-13T23:59:42.657Z,1.40
